Time,TemperatureF,DewpointF,PressureIn,WindDirection,WindDirectionDegrees,WindSpeedMPH,WindSpeedGustMPH,Humidity,HourlyPrecipIn,Conditions,Clouds,dailyrainin,SoftwareType,DateUTC
2013-04-11 00:02:00,58.0,-99.9,30.08,South,191,13.0,16.0,-999,-99.99,,,-99.99,,2013-04-11 07:02:00,
2013-04-11 00:12:00,60.0,-99.9,30.07,South,179,9.0,13.0,-999,-99.99,,,-99.99,,2013-04-11 07:12:00,
2013-04-11 00:22:00,60.0,-99.9,30.07,SSW,211,7.0,12.0,-999,-99.99,,,-99.99,,2013-04-11 07:22:00,
2013-04-11 00:32:00,60.0,-99.9,30.07,SSE,155,8.0,12.0,-999,-99.99,,,-99.99,,2013-04-11 07:32:00,
2013-04-11 00:43:00,60.0,-99.9,30.07,SSE,155,8.0,12.0,-999,-99.99,,,-99.99,,2013-04-11 07:43:00,
2013-04-11 00:52:00,58.0,-99.9,30.07,South,173,7.0,10.0,-999,-99.99,,,-99.99,,2013-04-11 07:52:00,
2013-04-11 01:03:00,58.0,-99.9,30.07,South,173,7.0,10.0,-999,-99.99,,,-99.99,,2013-04-11 08:03:00,
2013-04-11 01:12:00,58.0,-99.9,30.07,SSE,149,12.0,19.0,-999,-99.99,,,-99.99,,2013-04-11 08:12:00,
2013-04-11 01:22:00,58.0,-99.9,30.07,SSE,149,12.0,19.0,-999,-99.99,,,-99.99,,2013-04-11 08:22:00,
2013-04-11 01:33:00,59.0,-99.9,30.08,SE,136,3.0,9.0,-999,-99.99,,,-99.99,,2013-04-11 08:33:00,
2013-04-11 01:43:00,59.0,-99.9,30.08,SE,136,3.0,9.0,-999,-99.99,,,-99.99,,2013-04-11 08:43:00,
2013-04-11 01:52:00,60.0,-99.9,30.07,WNW,290,17.0,21.0,-999,-99.99,,,-99.99,,2013-04-11 08:52:00,
2013-04-11 02:02:00,60.0,-99.9,30.06,WNW,286,14.0,21.0,-999,-99.99,,,-99.99,,2013-04-11 09:02:00,
2013-04-11 02:12:00,60.0,-99.9,30.06,WNW,286,14.0,21.0,-999,-99.99,,,-99.99,,2013-04-11 09:12:00,
2013-04-11 02:22:00,59.0,-99.9,30.06,WNW,286,14.0,20.0,-999,-99.99,,,-99.99,,2013-04-11 09:22:00,
2013-04-11 02:33:00,59.0,-99.9,30.06,WNW,290,15.0,19.0,-999,-99.99,,,-99.99,,2013-04-11 09:33:00,
2013-04-11 02:43:00,59.0,-99.9,30.06,WNW,290,15.0,19.0,-999,-99.99,,,-99.99,,2013-04-11 09:43:00,
2013-04-11 02:53:00,59.0,-99.9,30.05,WNW,285,9.0,15.0,-999,-99.99,,,-99.99,,2013-04-11 09:53:00,
2013-04-11 03:03:00,59.0,-99.9,30.05,West,266,2.0,9.0,-999,-99.99,,,-99.99,,2013-04-11 10:03:00,
2013-04-11 03:13:00,58.0,-99.9,30.04,NW,309,13.0,17.0,-999,-99.99,,,-99.99,,2013-04-11 10:13:00,
2013-04-11 03:23:00,58.0,-99.9,30.04,NW,307,12.0,19.0,-999,-99.99,,,-99.99,,2013-04-11 10:23:00,
2013-04-11 03:32:00,57.0,-99.9,30.04,WNW,303,13.0,19.0,-999,-99.99,,,-99.99,,2013-04-11 10:32:00,
2013-04-11 03:42:00,57.0,-99.9,30.04,WNW,303,13.0,19.0,-999,-99.99,,,-99.99,,2013-04-11 10:42:00,
2013-04-11 03:53:00,56.0,-99.9,30.03,WNW,294,18.0,27.0,-999,-99.99,,,-99.99,,2013-04-11 10:53:00,
2013-04-11 04:03:00,56.0,-99.9,30.03,WNW,294,18.0,27.0,-999,-99.99,,,-99.99,,2013-04-11 11:03:00,
2013-04-11 04:13:00,55.0,-99.9,30.05,NW,307,11.0,20.0,-999,-99.99,,,-99.99,,2013-04-11 11:13:00,
2013-04-11 04:23:00,54.0,-99.9,30.04,WNW,294,15.0,20.0,-999,-99.99,,,-99.99,,2013-04-11 11:23:00,
2013-04-11 04:32:00,54.0,-99.9,30.05,NW,307,17.0,22.0,-999,-99.99,,,-99.99,,2013-04-11 11:32:00,
2013-04-11 04:43:00,54.0,-99.9,30.04,WNW,285,13.0,19.0,-999,-99.99,,,-99.99,,2013-04-11 11:43:00,
2013-04-11 04:53:00,53.0,-99.9,30.04,NW,305,15.0,19.0,-999,-99.99,,,-99.99,,2013-04-11 11:53:00,
2013-04-11 05:02:00,53.0,-99.9,30.04,WNW,302,11.0,16.0,-999,-99.99,,,-99.99,,2013-04-11 12:02:00,
2013-04-11 05:13:00,53.0,-99.9,30.04,WNW,302,11.0,16.0,-999,-99.99,,,-99.99,,2013-04-11 12:13:00,
2013-04-11 05:23:00,53.0,-99.9,30.04,WNW,290,11.0,14.0,-999,-99.99,,,-99.99,,2013-04-11 12:23:00,
2013-04-11 05:32:00,53.0,-99.9,30.04,WNW,296,10.0,12.0,-999,-99.99,,,-99.99,,2013-04-11 12:32:00,
2013-04-11 05:43:00,53.0,-99.9,30.04,WNW,296,10.0,12.0,-999,-99.99,,,-99.99,,2013-04-11 12:43:00,
2013-04-11 05:53:00,53.0,-99.9,30.03,WNW,291,7.0,10.0,-999,-99.99,,,-99.99,,2013-04-11 12:53:00,
2013-04-11 06:02:00,54.0,-99.9,30.03,WNW,301,6.0,9.0,-999,-99.99,,,-99.99,,2013-04-11 13:02:00,
2013-04-11 06:13:00,54.0,-99.9,30.03,WNW,297,7.0,10.0,-999,-99.99,,,-99.99,,2013-04-11 13:13:00,
2013-04-11 06:23:00,54.0,-99.9,30.03,WNW,297,6.0,7.0,-999,-99.99,,,-99.99,,2013-04-11 13:23:00,
2013-04-11 06:32:00,54.0,-99.9,30.03,WNW,303,5.0,6.0,-999,-99.99,,,-99.99,,2013-04-11 13:32:00,
2013-04-11 06:43:00,54.0,-99.9,30.03,WNW,296,4.0,6.0,-999,-99.99,,,-99.99,,2013-04-11 13:43:00,
2013-04-11 06:54:00,54.0,-99.9,30.03,WNW,296,4.0,5.0,-999,-99.99,,,-99.99,,2013-04-11 13:54:00,
2013-04-11 07:03:00,54.0,-99.9,30.03,WNW,294,4.0,5.0,-999,-99.99,,,-99.99,,2013-04-11 14:03:00,
2013-04-11 07:13:00,54.0,-99.9,30.04,NW,304,1.0,3.0,-999,-99.99,,,-99.99,,2013-04-11 14:13:00,
2013-04-11 07:22:00,54.0,-99.9,30.04,NNE,29,1.0,2.0,-999,-99.99,,,-99.99,,2013-04-11 14:22:00,
2013-04-11 07:33:00,55.0,-99.9,30.04,North,358,1.0,3.0,-999,-99.99,,,-99.99,,2013-04-11 14:33:00,
2013-04-11 07:43:00,55.0,-99.9,30.04,North,358,1.0,3.0,-999,-99.99,,,-99.99,,2013-04-11 14:43:00,
2013-04-11 07:53:00,57.0,-99.9,30.04,NE,44,0.0,3.0,-999,-99.99,,,-99.99,,2013-04-11 14:53:00,
2013-04-11 08:03:00,56.0,-99.9,30.04,WSW,250,1.0,2.0,-999,-99.99,,,-99.99,,2013-04-11 15:03:00,
2013-04-11 08:12:00,56.0,-99.9,30.05,SW,225,2.0,3.0,-999,-99.99,,,-99.99,,2013-04-11 15:12:00,
2013-04-11 08:22:00,56.0,-99.9,30.05,West,267,5.0,8.0,-999,-99.99,,,-99.99,,2013-04-11 15:22:00,
2013-04-11 08:32:00,56.0,-99.9,30.05,SSW,211,2.0,5.0,-999,-99.99,,,-99.99,,2013-04-11 15:32:00,
2013-04-11 08:43:00,56.0,-99.9,30.05,South,189,5.0,6.0,-999,-99.99,,,-99.99,,2013-04-11 15:43:00,
2013-04-11 08:53:00,56.0,-99.9,30.05,SSE,160,5.0,7.0,-999,-99.99,,,-99.99,,2013-04-11 15:53:00,
2013-04-11 09:02:00,56.0,-99.9,30.05,SE,144,5.0,6.0,-999,-99.99,,,-99.99,,2013-04-11 16:02:00,
2013-04-11 09:23:00,56.0,-99.9,30.05,South,178,5.0,6.0,-999,-99.99,,,-99.99,,2013-04-11 16:23:00,
2013-04-11 09:32:00,56.0,-99.9,30.05,South,177,4.0,4.0,-999,-99.99,,,-99.99,,2013-04-11 16:32:00,
2013-04-11 09:42:00,56.0,-99.9,30.05,South,186,4.0,6.0,-999,-99.99,,,-99.99,,2013-04-11 16:42:00,
2013-04-11 09:53:00,56.0,-99.9,30.04,SSW,210,4.0,6.0,-999,-99.99,,,-99.99,,2013-04-11 16:53:00,
2013-04-11 10:03:00,56.0,-99.9,30.04,South,188,5.0,6.0,-999,-99.99,,,-99.99,,2013-04-11 17:03:00,
2013-04-11 10:13:00,56.0,-99.9,30.04,South,187,5.0,7.0,-999,-99.99,,,-99.99,,2013-04-11 17:13:00,
2013-04-11 10:23:00,56.0,-99.9,30.04,South,191,5.0,8.0,-999,-99.99,,,-99.99,,2013-04-11 17:23:00,
2013-04-11 10:33:00,56.0,-99.9,30.04,South,187,7.0,8.0,-999,-99.99,,,-99.99,,2013-04-11 17:33:00,
2013-04-11 10:43:00,56.0,-99.9,30.04,South,185,7.0,9.0,-999,-99.99,,,-99.99,,2013-04-11 17:43:00,
2013-04-11 10:53:00,-999.0,-99.9,-100.00,South,182,7.0,9.0,-999,-99.99,,,-99.99,,2013-04-11 17:53:00,
2013-04-11 11:03:00,57.0,-99.9,30.04,South,171,5.0,6.0,-999,-99.99,,,-99.99,,2013-04-11 18:03:00,
2013-04-11 11:13:00,57.0,-99.9,30.03,South,178,5.0,7.0,-999,-99.99,,,-99.99,,2013-04-11 18:13:00,
2013-04-11 11:23:00,57.0,-99.9,30.03,South,180,7.0,9.0,-999,-99.99,,,-99.99,,2013-04-11 18:23:00,
2013-04-11 11:33:00,56.0,-99.9,30.03,SW,221,9.0,14.0,-999,-99.99,,,-99.99,,2013-04-11 18:33:00,
2013-04-11 11:43:00,56.0,-99.9,30.04,SW,221,9.0,14.0,-999,-99.99,,,-99.99,,2013-04-11 18:43:00,
2013-04-11 11:53:00,56.0,-99.9,30.03,SW,222,10.0,15.0,-999,-99.99,,,-99.99,,2013-04-11 18:53:00,
2013-04-11 12:00:00,57.0,-99.9,30.02,SSW,194,9.0,11.0,-999,-99.99,,,-99.99,,2013-04-11 19:00:00,
2013-04-11 12:04:00,57.0,-99.9,30.03,SW,214,8.0,13.0,-999,-99.99,,,-99.99,,2013-04-11 19:04:00,
2013-04-11 12:14:00,57.0,-99.9,30.03,SW,214,8.0,13.0,-999,-99.99,,,-99.99,,2013-04-11 19:14:00,
2013-04-11 12:23:00,57.0,-99.9,30.02,SSW,194,9.0,11.0,-999,-99.99,,,-99.99,,2013-04-11 19:23:00,
2013-04-11 12:33:00,57.0,-99.9,30.02,SSW,194,9.0,11.0,-999,-99.99,,,-99.99,,2013-04-11 19:33:00,
2013-04-11 12:43:00,57.0,-99.9,30.02,SSW,194,9.0,11.0,-999,-99.99,,,-99.99,,2013-04-11 19:43:00,
2013-04-11 12:53:00,57.0,-99.9,30.02,SSW,194,9.0,11.0,-999,-99.99,,,-99.99,,2013-04-11 19:53:00,
2013-04-11 15:03:00,61.0,-99.9,29.95,SSW,212,5.0,10.0,-999,-99.99,,,-99.99,,2013-04-11 22:03:00,
2013-04-11 15:13:00,61.0,-99.9,29.95,SSW,212,5.0,10.0,-999,-99.99,,,-99.99,,2013-04-11 22:13:00,
2013-04-11 15:23:00,63.0,-99.9,29.94,SW,220,5.0,7.0,-999,-99.99,,,-99.99,,2013-04-11 22:23:00,
2013-04-11 15:33:00,63.0,-99.9,29.94,SSW,204,3.0,6.0,-999,-99.99,,,-99.99,,2013-04-11 22:33:00,
2013-04-11 15:44:00,63.0,-99.9,29.93,SSE,156,6.0,7.0,-999,-99.99,,,-99.99,,2013-04-11 22:44:00,
2013-04-11 15:53:00,63.0,-99.9,29.92,SSE,164,5.0,8.0,-999,-99.99,,,-99.99,,2013-04-11 22:53:00,
2013-04-11 16:04:00,63.0,-99.9,29.91,South,172,5.0,9.0,-999,-99.99,,,-99.99,,2013-04-11 23:04:00,
2013-04-11 16:13:00,64.0,-99.9,29.91,South,172,4.0,6.0,-999,-99.99,,,-99.99,,2013-04-11 23:13:00,
2013-04-11 16:23:00,60.0,-99.9,29.90,SSW,200,7.0,12.0,-999,-99.99,,,-99.99,,2013-04-11 23:23:00,
2013-04-11 16:33:00,59.0,-99.9,29.90,SSW,210,6.0,10.0,-999,-99.99,,,-99.99,,2013-04-11 23:33:00,
2013-04-11 17:02:00,59.0,-99.9,29.90,SSW,210,6.0,10.0,-999,-99.99,,,-99.99,,2013-04-12 00:02:00,
2013-04-11 17:22:00,59.0,-99.9,29.88,South,189,10.0,12.0,-999,-99.99,,,-99.99,,2013-04-12 00:22:00,
2013-04-11 17:33:00,59.0,-99.9,29.88,South,189,7.0,9.0,-999,-99.99,,,-99.99,,2013-04-12 00:33:00,
2013-04-11 17:43:00,59.0,-99.9,29.88,South,189,7.0,9.0,-999,-99.99,,,-99.99,,2013-04-12 00:43:00,
2013-04-11 17:53:00,61.0,-99.9,29.88,SW,228,4.0,5.0,-999,-99.99,,,-99.99,,2013-04-12 00:53:00,
2013-04-11 18:03:00,61.0,-99.9,29.88,SW,228,4.0,5.0,-999,-99.99,,,-99.99,,2013-04-12 01:03:00,
2013-04-11 18:12:00,61.0,-99.9,29.88,SW,228,4.0,5.0,-999,-99.99,,,-99.99,,2013-04-12 01:12:00,
2013-04-11 18:23:00,63.0,-99.9,29.87,SSE,157,4.0,6.0,-999,-99.99,,,-99.99,,2013-04-12 01:23:00,
2013-04-11 18:33:00,64.0,-99.9,29.87,SSE,166,3.0,9.0,-999,-99.99,,,-99.99,,2013-04-12 01:33:00,
2013-04-11 18:42:00,62.0,-99.9,29.86,South,184,7.0,9.0,-999,-99.99,,,-99.99,,2013-04-12 01:42:00,
2013-04-11 18:53:00,60.0,-99.9,29.86,South,191,7.0,9.0,-999,-99.99,,,-99.99,,2013-04-12 01:53:00,
2013-04-11 19:03:00,60.0,-99.9,29.86,South,191,7.0,9.0,-999,-99.99,,,-99.99,,2013-04-12 02:03:00,
2013-04-11 19:12:00,60.0,-99.9,29.86,South,191,7.0,9.0,-999,-99.99,,,-99.99,,2013-04-12 02:12:00,
2013-04-11 19:22:00,60.0,-99.9,29.86,South,191,7.0,9.0,-999,-99.99,,,-99.99,,2013-04-12 02:22:00,
2013-04-11 19:32:00,60.0,-99.9,29.87,SW,219,4.0,6.0,-999,-99.99,,,-99.99,,2013-04-12 02:32:00,
2013-04-11 19:42:00,60.0,-99.9,29.87,SW,219,4.0,6.0,-999,-99.99,,,-99.99,,2013-04-12 02:42:00,
2013-04-11 19:53:00,60.0,-99.9,29.87,SSW,197,5.0,7.0,-999,-99.99,,,-99.99,,2013-04-12 02:53:00,
2013-04-11 20:02:00,60.0,-99.9,29.87,SSW,196,4.0,6.0,-999,-99.99,,,-99.99,,2013-04-12 03:02:00,
2013-04-11 20:12:00,60.0,-99.9,29.87,SSW,196,4.0,6.0,-999,-99.99,,,-99.99,,2013-04-12 03:12:00,
2013-04-11 20:22:00,59.0,-99.9,29.86,SSE,158,7.0,9.0,-999,-99.99,,,-99.99,,2013-04-12 03:22:00,
2013-04-11 20:33:00,59.0,-99.9,29.86,SSE,158,7.0,9.0,-999,-99.99,,,-99.99,,2013-04-12 03:33:00,
2013-04-11 20:43:00,58.0,-99.9,29.86,SSE,162,7.0,10.0,-999,-99.99,,,-99.99,,2013-04-12 03:43:00,
2013-04-11 20:53:00,60.0,-99.9,29.85,SSE,167,7.0,9.0,-999,-99.99,,,-99.99,,2013-04-12 03:53:00,
2013-04-11 21:03:00,60.0,-99.9,29.87,SSW,209,7.0,10.0,-999,-99.99,,,-99.99,,2013-04-12 04:03:00,
2013-04-11 21:13:00,57.0,-99.9,29.87,SW,221,11.0,15.0,-999,-99.99,,,-99.99,,2013-04-12 04:13:00,
2013-04-11 21:23:00,56.0,-99.9,29.87,SW,219,10.0,13.0,-999,-99.99,,,-99.99,,2013-04-12 04:23:00,
2013-04-11 21:33:00,56.0,-99.9,29.88,SW,224,8.0,12.0,-999,-99.99,,,-99.99,,2013-04-12 04:33:00,
2013-04-11 21:43:00,56.0,-99.9,29.88,SW,222,7.0,10.0,-999,-99.99,,,-99.99,,2013-04-12 04:43:00,
2013-04-11 21:53:00,56.0,-99.9,29.88,SW,221,8.0,10.0,-999,-99.99,,,-99.99,,2013-04-12 04:53:00,
2013-04-11 22:03:00,56.0,-99.9,29.89,SW,223,8.0,10.0,-999,-99.99,,,-99.99,,2013-04-12 05:03:00,
2013-04-11 22:12:00,55.0,-99.9,29.89,SSW,212,6.0,10.0,-999,-99.99,,,-99.99,,2013-04-12 05:12:00,
2013-04-11 22:23:00,55.0,-99.9,29.89,SSW,196,8.0,11.0,-999,-99.99,,,-99.99,,2013-04-12 05:23:00,
2013-04-11 22:32:00,55.0,-99.9,29.89,South,188,11.0,13.0,-999,-99.99,,,-99.99,,2013-04-12 05:32:00,
2013-04-11 22:42:00,55.0,-99.9,29.89,South,190,8.0,10.0,-999,-99.99,,,-99.99,,2013-04-12 05:42:00,
2013-04-11 22:52:00,55.0,-99.9,29.89,SSW,192,8.0,10.0,-999,-99.99,,,-99.99,,2013-04-12 05:52:00,
2013-04-11 23:02:00,55.0,-99.9,29.89,SSW,192,8.0,10.0,-999,-99.99,,,-99.99,,2013-04-12 06:02:00,
2013-04-11 23:12:00,56.0,-99.9,29.88,SW,215,6.0,10.0,-999,-99.99,,,-99.99,,2013-04-12 06:12:00,
2013-04-11 23:22:00,56.0,-99.9,29.89,SW,216,7.0,10.0,-999,-99.99,,,-99.99,,2013-04-12 06:22:00,
2013-04-11 23:32:00,55.0,-99.9,29.89,SSW,210,6.0,10.0,-999,-99.99,,,-99.99,,2013-04-12 06:32:00,
2013-04-11 23:42:00,55.0,-99.9,29.88,SSW,204,7.0,10.0,-999,-99.99,,,-99.99,,2013-04-12 06:42:00,
2013-04-11 23:52:00,54.0,-99.9,29.88,SSW,194,9.0,11.0,-999,-99.99,,,-99.99,,2013-04-12 06:52:00,